Time;durP1;ratioP1;P1;durP2;ratioP2;P2;SDS_P1;SDS_P2;PMS_P1;PMS_P2;Temp;Humidity;BMP_temperature;BMP_pressure;BME280_temperature;BME280_humidity;BME280_pressure;Samples;Min_cycle;Max_cycle;Signal;HPM_P1;HPM_P2
2022/06/29 00:02:11;;;;;;;3.10;2.80;;;21.10;62.70;;;;;;5046707;28;20025;-59
2022/06/29 00:04:36;;;;;;;5.13;2.92;;;21.10;62.70;;;;;;5046545;28;20041;-60
2022/06/29 00:07:02;;;;;;;5.55;3.05;;;21.10;62.80;;;;;;5045959;28;20029;-61
2022/06/29 00:09:28;;;;;;;4.10;2.53;;;21.00;62.90;;;;;;5044391;28;20037;-61
2022/06/29 00:11:54;;;;;;;2.97;2.70;;;21.00;63.10;;;;;;5038768;28;20111;-61
2022/06/29 00:14:19;;;;;;;3.17;2.58;;;20.90;63.10;;;;;;5040909;28;20029;-60
2022/06/29 00:16:45;;;;;;;2.92;2.30;;;20.80;63.20;;;;;;5044772;28;20120;-61
2022/06/29 00:19:11;;;;;;;3.28;2.60;;;20.80;63.30;;;;;;5043939;28;20144;-61
2022/06/29 00:21:36;;;;;;;3.08;2.78;;;20.80;63.50;;;;;;5045823;28;20047;-60
2022/06/29 00:24:02;;;;;;;3.10;2.80;;;20.70;63.50;;;;;;5049195;28;20040;-62
2022/06/29 00:26:28;;;;;;;4.22;2.90;;;20.70;63.50;;;;;;5043489;28;20084;-61
2022/06/29 00:28:54;;;;;;;3.10;2.63;;;20.70;63.60;;;;;;5047964;28;20048;-62
2022/06/29 00:31:19;;;;;;;3.53;2.70;;;20.60;63.70;;;;;;5044975;28;20041;-60
2022/06/29 00:33:45;;;;;;;4.10;2.95;;;20.50;63.90;;;;;;5038112;28;20025;-61
2022/06/29 00:36:11;;;;;;;4.93;2.85;;;20.50;64.00;;;;;;5070521;28;20088;-60
2022/06/29 00:38:37;;;;;;;3.00;2.35;;;20.50;64.10;;;;;;5044570;28;20029;-61
2022/06/29 00:41:03;;;;;;;3.17;2.67;;;20.50;64.10;;;;;;5047510;28;20056;-60
2022/06/29 00:43:28;;;;;;;4.00;2.67;;;20.40;64.10;;;;;;5044503;28;20049;-60
2022/06/29 00:45:54;;;;;;;4.35;2.78;;;20.40;64.30;;;;;;5047207;28;20017;-61
2022/06/29 00:48:20;;;;;;;6.35;2.80;;;20.40;64.30;;;;;;5044036;28;20060;-60
2022/06/29 00:50:47;;;;;;;2.92;2.53;;;20.30;64.30;;;;;;5042269;28;20037;-60
2022/06/29 00:53:16;;;;;;;2.65;2.45;;;20.40;64.40;;;;;;5035651;28;20432;-61
2022/06/29 00:55:44;;;;;;;5.07;2.53;;;20.30;64.50;;;;;;5041009;28;20053;-62
2022/06/29 00:58:11;;;;;;;3.60;2.53;;;20.30;64.20;;;;;;5059735;28;20044;-60
2022/06/29 01:00:37;;;;;;;4.47;2.40;;;20.20;64.20;;;;;;5048361;28;20040;-61
2022/06/29 01:03:03;;;;;;;4.63;2.33;;;20.10;64.20;;;;;;5044493;28;20040;-60
2022/06/29 01:05:30;;;;;;;3.58;2.55;;;20.10;64.50;;;;;;5048624;28;20121;-61
2022/06/29 01:07:57;;;;;;;3.78;2.55;;;20.10;64.80;;;;;;5045717;28;20033;-60
2022/06/29 01:10:23;;;;;;;4.28;2.75;;;20.00;65.10;;;;;;5041536;28;20032;-61
2022/06/29 01:12:49;;;;;;;2.65;2.45;;;20.00;65.50;;;;;;5041084;28;20084;-61
2022/06/29 01:15:15;;;;;;;3.08;2.70;;;20.00;65.60;;;;;;5041331;28;20036;-62
2022/06/29 01:17:41;;;;;;;2.65;2.45;;;20.00;65.60;;;;;;5039466;28;20029;-60
2022/06/29 01:20:08;;;;;;;3.55;2.63;;;19.90;65.60;;;;;;5039429;28;20467;-61
2022/06/29 01:22:34;;;;;;;2.80;2.60;;;19.90;65.50;;;;;;5045958;28;20037;-60
2022/06/29 01:24:59;;;;;;;2.75;2.40;;;19.90;65.60;;;;;;5045143;28;20021;-61
2022/06/29 01:27:25;;;;;;;2.92;2.55;;;19.90;65.80;;;;;;5042081;28;20053;-62
2022/06/29 01:29:51;;;;;;;3.55;2.58;;;19.90;65.80;;;;;;5042198;28;20092;-59
2022/06/29 01:32:17;;;;;;;2.47;2.28;;;19.90;65.80;;;;;;5042193;28;20108;-61
2022/06/29 01:34:44;;;;;;;5.13;2.88;;;19.90;65.80;;;;;;5044889;28;20132;-59
2022/06/29 01:37:11;;;;;;;4.60;2.33;;;19.90;65.80;;;;;;5043070;28;20128;-60
2022/06/29 01:39:37;;;;;;;2.75;2.33;;;19.90;65.80;;;;;;5041348;28;20510;-61
2022/06/29 01:42:04;;;;;;;4.88;2.88;;;19.90;66.00;;;;;;5040585;28;20033;-60
2022/06/29 01:44:29;;;;;;;3.65;2.65;;;19.80;65.90;;;;;;5042175;28;20033;-60
2022/06/29 01:46:55;;;;;;;2.92;2.63;;;19.80;65.90;;;;;;5039715;28;20052;-60
2022/06/29 01:49:23;;;;;;;2.70;2.50;;;19.80;65.90;;;;;;5039720;28;20104;-61
2022/06/29 01:51:49;;;;;;;3.78;2.90;;;19.80;65.80;;;;;;5045879;28;20030;-61
2022/06/29 01:54:15;;;;;;;8.23;2.47;;;19.80;65.90;;;;;;5043394;28;20021;-61
2022/06/29 01:56:41;;;;;;;4.22;2.85;;;19.70;65.90;;;;;;5044853;28;20052;-61
2022/06/29 01:59:06;;;;;;;2.45;2.25;;;19.70;66.00;;;;;;5037645;28;21197;-60
2022/06/29 02:01:32;;;;;;;2.80;2.42;;;19.70;66.20;;;;;;5041511;28;20033;-61
2022/06/29 02:03:58;;;;;;;2.72;2.38;;;19.60;66.10;;;;;;5043761;28;20032;-60
2022/06/29 02:06:24;;;;;;;3.42;2.53;;;19.60;66.20;;;;;;5042862;28;20026;-60
2022/06/29 02:08:50;;;;;;;2.95;2.30;;;19.60;66.30;;;;;;5041468;28;20030;-60
2022/06/29 02:11:16;;;;;;;2.60;2.33;;;19.60;66.30;;;;;;5043376;28;20039;-60
2022/06/29 02:13:42;;;;;;;3.47;2.78;;;19.60;66.40;;;;;;5042357;28;20029;-59
2022/06/29 02:16:08;;;;;;;2.63;2.42;;;19.60;66.60;;;;;;5040713;28;20029;-61
2022/06/29 02:18:34;;;;;;;3.65;2.80;;;19.60;66.60;;;;;;5043717;28;20034;-59
2022/06/29 02:21:00;;;;;;;2.88;2.60;;;19.60;66.70;;;;;;5051048;28;20039;-60
2022/06/29 02:23:25;;;;;;;5.40;2.80;;;19.60;66.80;;;;;;5046906;28;20029;-59
2022/06/29 02:25:51;;;;;;;4.97;2.90;;;19.60;66.80;;;;;;5044895;28;20188;-61
2022/06/29 02:28:17;;;;;;;4.18;2.50;;;19.50;67.00;;;;;;5050393;28;20160;-60
2022/06/29 02:36:12;;;;;;;3.08;2.72;;;19.50;67.10;;;;;;5038351;28;20400;-60
2022/06/29 02:38:37;;;;;;;3.33;2.78;;;19.50;66.90;;;;;;5050190;28;20055;-60
2022/06/29 02:41:03;;;;;;;8.43;3.15;;;19.50;67.20;;;;;;5047401;28;20065;-62
2022/06/29 02:43:29;;;;;;;4.50;3.00;;;19.50;67.30;;;;;;5045390;28;20152;-59
2022/06/29 02:45:54;;;;;;;3.40;3.10;;;19.40;67.40;;;;;;5045767;28;20036;-62
2022/06/29 02:48:20;;;;;;;4.07;3.20;;;19.40;67.60;;;;;;5049007;28;20021;-61
2022/06/29 02:50:46;;;;;;;4.55;3.00;;;19.40;67.70;;;;;;5057703;28;20021;-60
2022/06/29 02:53:11;;;;;;;3.50;2.85;;;19.40;67.80;;;;;;5046968;28;20029;-60
2022/06/29 02:55:37;;;;;;;3.50;3.08;;;19.30;67.90;;;;;;5048489;28;20396;-60
2022/06/29 02:58:04;;;;;;;3.95;3.03;;;19.40;67.90;;;;;;5039637;28;20484;-61
2022/06/29 03:00:29;;;;;;;3.25;2.65;;;19.30;67.70;;;;;;5048626;28;20463;-61
2022/06/29 03:02:55;;;;;;;4.70;2.97;;;19.30;67.90;;;;;;5046752;28;20060;-60
2022/06/29 03:05:21;;;;;;;3.67;2.92;;;19.30;67.90;;;;;;5046437;28;20029;-61
2022/06/29 03:07:47;;;;;;;4.93;3.00;;;19.30;68.00;;;;;;5046054;28;20064;-61
2022/06/29 03:10:12;;;;;;;8.23;3.30;;;19.30;68.00;;;;;;5047714;28;20072;-60
2022/06/29 03:12:38;;;;;;;3.10;2.83;;;19.30;68.00;;;;;;5052347;28;20052;-61
2022/06/29 03:15:04;;;;;;;3.15;2.85;;;19.30;68.00;;;;;;5046661;28;20026;-60
2022/06/29 03:17:30;;;;;;;3.85;3.35;;;19.30;67.90;;;;;;5048490;28;20037;-58
2022/06/29 03:19:56;;;;;;;6.78;2.70;;;19.30;67.80;;;;;;5046198;28;20415;-61
2022/06/29 03:22:23;;;;;;;4.80;2.92;;;19.30;67.80;;;;;;5037154;28;20040;-59
2022/06/29 03:24:48;;;;;;;4.18;3.00;;;19.30;67.80;;;;;;5053425;28;20032;-60
2022/06/29 03:27:14;;;;;;;4.65;2.95;;;19.30;67.80;;;;;;5051606;28;20049;-60
2022/06/29 03:29:40;;;;;;;3.08;2.63;;;19.20;67.70;;;;;;5048210;28;20033;-61
2022/06/29 03:32:06;;;;;;;7.03;3.00;;;19.20;67.80;;;;;;5046424;28;20040;-61
2022/06/29 03:34:32;;;;;;;5.35;2.97;;;19.20;67.80;;;;;;5047423;28;20033;-60
2022/06/29 03:36:57;;;;;;;3.45;2.95;;;19.20;68.00;;;;;;5053592;28;20396;-60
2022/06/29 03:39:23;;;;;;;4.57;3.00;;;19.20;68.00;;;;;;5038761;28;20419;-60
2022/06/29 03:41:48;;;;;;;4.13;2.63;;;19.20;68.20;;;;;;5051326;28;20029;-60
2022/06/29 03:44:14;;;;;;;3.25;2.70;;;19.20;68.10;;;;;;5040076;28;20026;-59
2022/06/29 03:46:40;;;;;;;2.83;2.60;;;19.20;68.20;;;;;;5050616;28;20035;-61
2022/06/29 03:49:05;;;;;;;3.58;3.15;;;19.20;68.30;;;;;;5044997;28;20076;-61
2022/06/29 03:51:32;;;;;;;8.85;3.30;;;19.20;68.40;;;;;;5043233;28;20498;-61
2022/06/29 03:53:57;;;;;;;6.78;2.85;;;19.20;68.50;;;;;;5045194;28;20031;-60
2022/06/29 03:56:23;;;;;;;5.70;2.78;;;19.20;68.40;;;;;;5049556;28;20026;-61
2022/06/29 03:58:49;;;;;;;9.25;2.88;;;19.20;68.40;;;;;;5048762;28;20052;-61
2022/06/29 04:01:14;;;;;;;6.30;2.83;;;19.30;68.50;;;;;;5053842;28;20025;-61
2022/06/29 04:03:40;;;;;;;3.85;2.92;;;19.30;68.60;;;;;;5055305;28;20089;-61
2022/06/29 04:06:06;;;;;;;4.57;3.10;;;19.30;68.70;;;;;;5047298;28;20481;-60
2022/06/29 04:08:32;;;;;;;6.22;3.10;;;19.30;68.90;;;;;;5046944;28;20071;-60
2022/06/29 04:10:57;;;;;;;12.07;3.30;;;19.30;68.90;;;;;;5048722;28;20029;-60
2022/06/29 04:13:23;;;;;;;5.03;3.53;;;19.30;69.00;;;;;;5033214;28;20053;-61
2022/06/29 04:15:50;;;;;;;5.18;3.40;;;19.30;69.10;;;;;;5044777;28;20033;-60
2022/06/29 04:18:16;;;;;;;5.57;3.20;;;19.30;69.20;;;;;;5048383;28;20032;-61
2022/06/29 04:23:26;;;;;;;3.53;3.20;;;19.40;69.20;;;;;;5043297;28;20064;-60
2022/06/29 04:25:52;;;;;;;4.20;2.95;;;19.50;69.10;;;;;;4992407;28;20026;-60
2022/06/29 04:28:18;;;;;;;5.13;3.30;;;19.50;69.10;;;;;;5041026;28;20046;-60
2022/06/29 04:30:43;;;;;;;6.30;3.17;;;19.50;69.10;;;;;;5053934;28;20025;-60
2022/06/29 04:33:09;;;;;;;4.18;3.20;;;19.60;69.20;;;;;;5042673;28;20029;-60
2022/06/29 04:35:35;;;;;;;5.68;2.80;;;19.70;69.20;;;;;;5054639;28;20033;-60
2022/06/29 04:38:01;;;;;;;4.63;2.90;;;19.70;69.00;;;;;;5042479;28;20061;-62
2022/06/29 04:40:27;;;;;;;3.08;2.78;;;19.80;69.00;;;;;;5044418;28;20133;-61
2022/06/29 04:42:53;;;;;;;4.35;3.22;;;19.80;68.90;;;;;;5045691;28;20333;-61
2022/06/29 04:48:03;;;;;;;3.63;3.00;;;19.90;68.40;;;;;;5041636;28;20052;-60
2022/06/29 04:50:29;;;;;;;5.75;3.05;;;20.00;68.30;;;;;;5049701;28;20029;-60
2022/06/29 04:52:55;;;;;;;11.57;3.13;;;19.90;68.50;;;;;;5049890;28;20688;-61
2022/06/29 04:55:21;;;;;;;4.78;2.92;;;20.00;68.70;;;;;;5053906;28;20033;-62
2022/06/29 04:57:47;;;;;;;5.75;3.03;;;20.00;68.80;;;;;;5046031;28;20052;-60
2022/06/29 05:00:13;;;;;;;7.60;3.25;;;20.10;69.00;;;;;;5042373;28;20026;-60
2022/06/29 05:02:39;;;;;;;6.00;3.00;;;20.20;68.90;;;;;;5043323;28;20045;-61
2022/06/29 05:05:05;;;;;;;3.45;3.05;;;20.20;68.90;;;;;;5049778;28;20088;-61
2022/06/29 05:07:31;;;;;;;4.82;3.03;;;20.20;68.80;;;;;;5045239;28;20037;-61
2022/06/29 05:09:56;;;;;;;9.85;3.78;;;20.30;68.60;;;;;;5042250;28;20053;-62
2022/06/29 05:12:22;;;;;;;11.65;3.75;;;20.30;68.50;;;;;;5044794;28;20045;-60
2022/06/29 05:14:48;;;;;;;5.97;3.88;;;20.30;68.50;;;;;;5043073;28;20041;-61
2022/06/29 05:17:13;;;;;;;5.70;3.15;;;20.40;68.60;;;;;;5038722;28;20026;-61
2022/06/29 05:19:39;;;;;;;6.55;3.40;;;20.40;68.60;;;;;;5045606;28;20036;-60
2022/06/29 05:22:04;;;;;;;7.15;3.55;;;20.40;68.40;;;;;;5039951;28;20112;-60
2022/06/29 05:24:31;;;;;;;7.25;2.75;;;20.50;68.50;;;;;;5043691;28;20033;-60
2022/06/29 05:26:56;;;;;;;6.82;3.47;;;20.50;68.60;;;;;;5042296;28;20057;-61
2022/06/29 05:29:24;;;;;;;7.28;3.38;;;20.50;68.60;;;;;;5044589;28;20029;-60
2022/06/29 05:31:49;;;;;;;11.80;3.67;;;20.60;68.50;;;;;;5048375;28;20052;-60
2022/06/29 05:34:15;;;;;;;9.75;3.00;;;20.60;68.70;;;;;;5041441;28;20029;-60
2022/06/29 05:36:41;;;;;;;9.20;3.40;;;20.60;68.50;;;;;;5047938;28;20036;-61
2022/06/29 05:39:06;;;;;;;6.00;3.35;;;20.60;68.30;;;;;;5049058;28;20044;-60
2022/06/29 05:41:32;;;;;;;3.95;3.10;;;20.70;68.40;;;;;;5043187;28;20387;-60
2022/06/29 05:43:58;;;;;;;7.88;3.33;;;20.70;68.20;;;;;;5043617;28;20469;-61
2022/06/29 05:46:23;;;;;;;5.68;3.05;;;20.70;68.00;;;;;;5044124;28;20040;-60
2022/06/29 05:48:50;;;;;;;6.63;3.40;;;20.70;68.00;;;;;;5042326;28;20109;-61
2022/06/29 05:51:15;;;;;;;11.10;3.00;;;20.70;67.90;;;;;;5040008;28;20041;-61
2022/06/29 05:53:41;;;;;;;11.05;3.47;;;20.70;67.80;;;;;;5042574;28;20041;-60
2022/06/29 05:56:07;;;;;;;8.85;3.42;;;20.70;67.90;;;;;;5044592;28;20093;-59
2022/06/29 05:58:32;;;;;;;12.52;3.97;;;20.80;68.10;;;;;;5052007;28;20033;-61
2022/06/29 06:00:58;;;;;;;5.38;3.00;;;20.80;68.20;;;;;;5052429;28;20065;-60
2022/06/29 06:03:24;;;;;;;6.15;3.17;;;20.80;68.10;;;;;;5042280;28;20132;-61
2022/06/29 06:05:49;;;;;;;5.90;3.70;;;20.80;68.00;;;;;;5041130;28;20263;-60
2022/06/29 06:08:17;;;;;;;10.98;3.30;;;20.80;68.10;;;;;;5041593;28;20060;-60
2022/06/29 06:10:42;;;;;;;5.60;3.47;;;20.80;68.30;;;;;;5045738;28;20108;-61
2022/06/29 06:13:09;;;;;;;6.13;3.28;;;20.90;68.40;;;;;;5047460;28;20033;-61
2022/06/29 06:15:35;;;;;;;12.02;3.58;;;20.90;68.20;;;;;;5049479;28;20025;-62
2022/06/29 06:18:01;;;;;;;6.43;3.25;;;21.00;68.10;;;;;;5053058;28;20022;-60
2022/06/29 06:20:28;;;;;;;8.15;3.22;;;21.00;68.00;;;;;;5046457;28;20033;-60
2022/06/29 06:22:55;;;;;;;8.23;3.72;;;21.10;68.00;;;;;;5052933;28;20037;-61
2022/06/29 06:25:20;;;;;;;7.40;3.55;;;21.20;68.10;;;;;;5042790;28;20052;-60
2022/06/29 06:27:46;;;;;;;7.80;3.47;;;21.20;68.20;;;;;;5045741;28;20045;-60
2022/06/29 06:30:12;;;;;;;14.68;3.35;;;21.30;68.10;;;;;;5057441;28;20017;-61
2022/06/29 06:32:38;;;;;;;3.95;2.67;;;21.30;68.00;;;;;;5051263;28;20037;-61
2022/06/29 06:35:05;;;;;;;11.10;3.78;;;21.40;67.90;;;;;;5050451;28;20479;-60
2022/06/29 06:37:30;;;;;;;8.07;3.58;;;21.40;67.90;;;;;;5050996;28;20029;-60
2022/06/29 06:42:40;;;;;;;;;;;21.50;67.80;;;;;;5036523;28;20037;-61
2022/06/29 06:45:07;;;;;;;4.55;3.45;;;21.70;67.70;;;;;;5049331;28;19909;-60
2022/06/29 06:47:33;;;;;;;5.78;3.35;;;21.70;67.40;;;;;;5051373;28;20056;-61
2022/06/29 06:49:58;;;;;;;8.45;3.67;;;21.80;67.50;;;;;;5040621;28;20476;-61
2022/06/29 06:52:24;;;;;;;6.35;3.47;;;21.80;67.50;;;;;;5050913;28;20033;-60
2022/06/29 06:54:50;;;;;;;5.55;3.38;;;21.90;67.50;;;;;;5047090;28;20033;-60
2022/06/29 06:57:16;;;;;;;6.82;3.13;;;22.00;67.30;;;;;;5045572;28;20022;-62
2022/06/29 06:59:41;;;;;;;8.43;3.50;;;22.00;67.10;;;;;;5034746;28;20033;-61
2022/06/29 07:02:07;;;;;;;4.35;3.08;;;22.10;67.00;;;;;;5052940;28;20009;-61
2022/06/29 07:04:33;;;;;;;8.63;3.53;;;22.10;66.70;;;;;;5061762;28;20037;-62
2022/06/29 07:06:58;;;;;;;4.80;3.60;;;22.20;66.60;;;;;;5051686;28;20037;-61
2022/06/29 07:09:24;;;;;;;4.35;3.08;;;22.20;66.50;;;;;;5046469;28;20025;-61
2022/06/29 07:11:50;;;;;;;4.80;3.42;;;22.20;66.30;;;;;;5047264;28;20126;-60
2022/06/29 07:14:15;;;;;;;6.07;3.80;;;22.20;66.40;;;;;;5046828;28;20029;-61
2022/06/29 07:16:41;;;;;;;7.47;4.32;;;22.30;66.30;;;;;;5047183;28;20052;-61
2022/06/29 07:19:07;;;;;;;7.80;3.90;;;22.30;66.30;;;;;;5045865;28;20053;-61
2022/06/29 07:21:33;;;;;;;6.65;3.97;;;22.30;66.30;;;;;;5048305;28;20029;-61
2022/06/29 07:23:59;;;;;;;6.60;4.10;;;22.20;66.30;;;;;;5048326;28;20040;-61
2022/06/29 07:26:28;;;;;;;7.38;4.07;;;22.30;66.30;;;;;;5048995;28;20404;-60
2022/06/29 07:28:53;;;;;;;6.95;4.75;;;22.20;66.30;;;;;;5044560;28;20113;-61
2022/06/29 07:31:19;;;;;;;6.68;4.55;;;22.20;66.00;;;;;;5048177;28;20076;-61
2022/06/29 07:33:45;;;;;;;6.82;4.10;;;22.20;66.00;;;;;;5045635;28;20030;-61
2022/06/29 07:36:11;;;;;;;7.30;3.95;;;22.20;66.10;;;;;;5050475;28;20449;-60
2022/06/29 07:38:37;;;;;;;6.43;4.15;;;22.20;66.10;;;;;;5047666;28;20040;-61
2022/06/29 07:41:04;;;;;;;6.13;3.83;;;22.20;66.00;;;;;;5045576;28;20037;-61
2022/06/29 07:43:30;;;;;;;8.90;4.20;;;22.20;66.10;;;;;;5051296;28;20025;-62
2022/06/29 07:45:59;;;;;;;4.78;3.33;;;22.20;66.30;;;;;;5048368;28;20081;-61
2022/06/29 07:48:25;;;;;;;9.27;3.60;;;22.20;66.70;;;;;;5048001;28;20051;-60
2022/06/29 07:50:53;;;;;;;7.45;3.65;;;22.20;66.80;;;;;;5057651;28;20055;-60
2022/06/29 07:53:19;;;;;;;11.57;4.35;;;22.20;67.10;;;;;;5048935;28;20030;-62
2022/06/29 07:55:45;;;;;;;5.28;3.92;;;22.20;67.10;;;;;;5044254;28;20022;-62
2022/06/29 07:58:15;;;;;;;9.35;4.40;;;22.20;67.20;;;;;;5044527;28;20030;-60
2022/06/29 08:00:41;;;;;;;9.60;4.00;;;22.20;67.50;;;;;;5053928;28;20052;-60
2022/06/29 08:03:07;;;;;;;7.95;4.32;;;22.20;67.20;;;;;;5048910;28;20029;-62
2022/06/29 08:05:34;;;;;;;5.93;4.00;;;22.20;67.20;;;;;;5046905;28;20033;-60
2022/06/29 08:07:59;;;;;;;6.53;4.03;;;22.20;67.30;;;;;;5055185;28;20032;-61
2022/06/29 08:10:25;;;;;;;8.52;4.53;;;22.20;67.50;;;;;;5046349;28;20025;-62
2022/06/29 08:12:51;;;;;;;5.53;3.90;;;22.20;67.70;;;;;;5045239;28;20041;-61
2022/06/29 08:15:17;;;;;;;7.70;4.22;;;22.20;67.90;;;;;;5045751;28;20056;-60
2022/06/29 08:17:44;;;;;;;8.82;4.50;;;22.20;67.90;;;;;;5051851;28;20017;-60
2022/06/29 08:20:10;;;;;;;5.80;4.80;;;22.30;67.80;;;;;;5042585;28;20040;-62
2022/06/29 08:22:36;;;;;;;5.30;4.50;;;22.30;67.50;;;;;;5050752;28;20116;-60
2022/06/29 08:25:03;;;;;;;5.13;4.22;;;22.30;67.20;;;;;;4931053;28;20511;-61
2022/06/29 08:27:30;;;;;;;7.95;5.20;;;22.30;67.20;;;;;;5055238;28;20049;-60
2022/06/29 08:29:56;;;;;;;6.05;4.43;;;22.30;67.30;;;;;;5046158;28;20077;-61
2022/06/29 08:32:22;;;;;;;6.93;4.43;;;22.30;67.50;;;;;;5054851;28;20041;-62
2022/06/29 08:34:48;;;;;;;5.78;4.32;;;22.40;67.50;;;;;;5038625;28;20026;-61
2022/06/29 08:37:14;;;;;;;5.55;3.38;;;22.40;67.60;;;;;;5046153;28;20030;-60
2022/06/29 08:39:39;;;;;;;5.88;3.88;;;22.50;67.40;;;;;;5048500;28;20526;-61
2022/06/29 08:42:06;;;;;;;9.75;3.92;;;22.60;67.40;;;;;;5053715;28;20025;-61
2022/06/29 08:44:33;;;;;;;10.45;3.75;;;22.60;67.50;;;;;;5050724;28;20021;-62
2022/06/29 08:47:08;;;;;;;4.82;3.35;;;22.70;67.20;;;;;;5050393;28;20387;-60
2022/06/29 08:49:36;;;;;;;5.15;3.40;;;22.80;66.80;;;;;;5033588;28;20108;-60
2022/06/29 08:52:04;;;;;;;6.50;2.97;;;22.90;66.60;;;;;;5037400;28;20030;-59
2022/06/29 08:54:31;;;;;;;4.38;3.08;;;23.00;66.80;;;;;;5043045;28;20060;-60
2022/06/29 08:56:58;;;;;;;6.40;3.50;;;23.10;66.70;;;;;;5043587;28;20034;-61
2022/06/29 08:59:24;;;;;;;3.65;3.25;;;23.20;66.80;;;;;;5035132;28;20022;-60
2022/06/29 09:01:50;;;;;;;3.80;2.90;;;23.30;66.10;;;;;;5041455;28;20034;-61
2022/06/29 09:04:20;;;;;;;5.65;3.22;;;23.50;65.90;;;;;;5045273;28;20049;-61
2022/06/29 09:06:46;;;;;;;8.77;3.80;;;23.60;66.00;;;;;;5043801;28;20412;-61
2022/06/29 09:09:12;;;;;;;8.32;3.55;;;23.70;65.00;;;;;;5042239;28;20021;-60
2022/06/29 09:11:43;;;;;;;8.57;3.72;;;23.80;64.60;;;;;;5045848;28;20105;-60
2022/06/29 09:14:21;;;;;;;8.05;3.70;;;23.80;63.90;;;;;;5037847;28;20034;-60
2022/06/29 09:16:56;;;;;;;6.43;3.08;;;23.90;63.30;;;;;;5035761;28;20037;-61
2022/06/29 09:19:26;;;;;;;4.68;3.10;;;24.00;63.50;;;;;;5040945;28;20029;-60
2022/06/29 09:21:54;;;;;;;7.97;3.97;;;24.00;64.20;;;;;;5038230;28;20060;-60
2022/06/29 09:24:26;;;;;;;6.93;3.95;;;24.20;63.80;;;;;;5047934;28;20028;-60
2022/06/29 09:26:54;;;;;;;11.05;5.15;;;24.30;63.70;;;;;;5047767;28;20059;-61
2022/06/29 09:29:24;;;;;;;7.05;3.75;;;24.40;62.90;;;;;;5046070;28;20754;-62
2022/06/29 09:32:02;;;;;;;5.13;4.10;;;24.60;62.60;;;;;;5037368;28;20036;-61
2022/06/29 09:34:41;;;;;;;8.25;5.22;;;24.70;61.70;;;;;;5044230;28;20083;-61
2022/06/29 09:37:14;;;;;;;9.98;4.50;;;24.80;61.70;;;;;;5041246;28;20025;-62
2022/06/29 09:39:47;;;;;;;6.85;3.83;;;24.90;62.30;;;;;;5042639;28;20047;-62
2022/06/29 09:42:14;;;;;;;10.57;5.03;;;25.10;62.10;;;;;;5039080;28;20032;-61
2022/06/29 09:44:41;;;;;;;7.30;4.20;;;25.20;61.10;;;;;;5042115;28;20053;-61
2022/06/29 09:47:15;;;;;;;7.60;4.53;;;25.40;60.90;;;;;;5043778;28;20025;-60
2022/06/29 09:49:45;;;;;;;9.45;5.28;;;25.50;60.90;;;;;;5040492;28;20107;-61
2022/06/29 09:52:11;;;;;;;7.13;4.43;;;25.60;60.50;;;;;;5045176;28;20049;-62
2022/06/29 09:54:47;;;;;;;5.60;4.03;;;25.70;60.40;;;;;;5044112;28;20057;-63
2022/06/29 09:57:15;;;;;;;6.80;4.30;;;25.80;60.10;;;;;;5035548;28;20029;-61
2022/06/29 10:02:39;;;;;;;7.43;4.22;;;26.00;58.90;;;;;;5041394;28;20037;-61
2022/06/29 10:05:14;;;;;;;5.88;3.60;;;26.20;58.90;;;;;;5045950;28;20041;-61
2022/06/29 10:07:43;;;;;;;5.97;3.65;;;26.20;58.40;;;;;;5039787;28;20037;-61
2022/06/29 10:10:13;;;;;;;5.13;4.10;;;26.20;58.30;;;;;;5039687;28;20154;-61
2022/06/29 10:16:18;;;;;;;7.10;4.27;;;26.20;57.30;;;;;;5034790;28;20044;-61
2022/06/29 10:19:04;;;;;;;5.70;3.88;;;26.20;57.90;;;;;;5042339;28;20040;-61
2022/06/29 10:21:31;;;;;;;6.78;3.70;;;26.10;57.50;;;;;;5039456;28;20041;-62
2022/06/29 10:24:02;;;;;;;8.10;3.72;;;26.10;57.60;;;;;;5043556;28;20447;-62
2022/06/29 10:26:32;;;;;;;5.93;3.80;;;26.00;57.70;;;;;;5042315;28;20042;-61
2022/06/29 10:29:10;;;;;;;6.18;3.40;;;25.90;57.90;;;;;;5042212;28;20037;-62
2022/06/29 10:36:59;;;;;;;7.90;4.20;;;25.70;57.20;;;;;;5038913;28;20091;-61
2022/06/29 10:39:25;;;;;;;5.07;3.28;;;25.70;57.70;;;;;;5042184;28;20060;-61
2022/06/29 10:45:18;;;;;;;5.00;3.35;;;25.70;58.50;;;;;;5046420;28;20063;-61
2022/06/29 10:47:45;;;;;;;6.07;4.10;;;25.80;58.20;;;;;;4995899;28;20029;-61
2022/06/29 10:52:44;;;;;;;;;;;25.90;57.80;;;;;;5009649;28;20041;-61
2022/06/29 10:55:11;;;;;;;4.30;2.53;;;25.90;58.30;;;;;;5023806;28;19913;-61
2022/06/29 10:57:44;;;;;;;6.30;2.60;;;26.00;57.90;;;;;;5012706;28;20034;-61
2022/06/29 11:00:34;;;;;;;3.72;2.83;;;26.00;57.70;;;;;;5006359;28;20050;-62
2022/06/29 11:03:12;;;;;;;7.78;2.65;;;26.00;57.20;;;;;;5001824;28;20030;-62
2022/06/29 11:12:01;;;;;;;2.70;2.50;;;26.20;57.30;;;;;;5013345;28;20050;-61
2022/06/29 11:13:57;;;;;;;4.55;2.58;;;26.50;58.30;;;;;;5004659;28;20045;-61
2022/06/29 11:16:42;;;;;;;2.85;2.28;;;26.70;58.60;;;;;;5010474;28;20030;-61
2022/06/29 11:19:13;;;;;;;4.63;2.42;;;26.90;57.50;;;;;;5041099;28;20034;-61
2022/06/29 11:21:39;;;;;;;4.05;3.15;;;27.10;57.40;;;;;;5045278;28;20052;-63
2022/06/29 11:24:05;;;;;;;4.75;2.25;;;27.40;56.40;;;;;;5053855;28;20030;-61
2022/06/29 11:26:33;;;;;;;4.25;2.30;;;27.60;56.80;;;;;;5048631;28;20102;-63
2022/06/29 11:29:01;;;;;;;4.45;2.45;;;27.80;55.60;;;;;;5042282;28;20034;-62
2022/06/29 11:31:27;;;;;;;4.18;2.97;;;28.00;55.00;;;;;;5040110;28;20040;-63
2022/06/29 11:33:54;;;;;;;4.03;2.83;;;28.10;54.80;;;;;;5062680;28;20032;-62
2022/06/29 11:36:21;;;;;;;5.18;2.90;;;28.30;55.00;;;;;;5046890;28;20032;-62
2022/06/29 11:38:52;;;;;;;3.40;2.53;;;28.40;55.00;;;;;;5045462;28;20037;-61
2022/06/29 11:41:25;;;;;;;3.90;2.58;;;28.50;54.70;;;;;;5046949;28;20072;-62
2022/06/29 11:43:59;;;;;;;3.50;2.40;;;28.70;53.60;;;;;;5041387;28;20033;-62
2022/06/29 11:46:27;;;;;;;3.72;2.25;;;28.90;54.10;;;;;;5050285;28;20037;-62
2022/06/29 11:51:57;;;;;;;3.70;2.38;;;29.30;51.60;;;;;;5033143;28;20032;-62
2022/06/29 11:54:38;;;;;;;5.28;2.80;;;29.30;52.10;;;;;;5041098;28;20106;-61
2022/06/29 11:57:10;;;;;;;5.07;2.38;;;29.40;49.20;;;;;;5048894;28;20085;-62
2022/06/29 11:59:37;;;;;;;6.03;2.42;;;29.50;51.40;;;;;;5039572;28;20044;-62
2022/06/29 12:02:03;;;;;;;4.85;2.50;;;29.40;51.40;;;;;;5055841;28;20031;-61
2022/06/29 12:04:31;;;;;;;3.70;2.63;;;29.40;51.10;;;;;;5036386;28;20026;-62
2022/06/29 12:07:10;;;;;;;3.00;2.33;;;29.30;51.10;;;;;;5048974;28;20029;-62
2022/06/29 12:09:40;;;;;;;4.60;2.38;;;29.20;50.50;;;;;;5044369;28;20029;-61
2022/06/29 12:12:07;;;;;;;6.50;2.42;;;29.30;51.50;;;;;;5041504;28;20033;-62
2022/06/29 12:14:34;;;;;;;9.70;2.53;;;29.30;51.60;;;;;;5040635;28;20033;-62
2022/06/29 12:17:02;;;;;;;4.00;2.25;;;29.30;51.40;;;;;;5051774;28;20029;-62
2022/06/29 12:19:28;;;;;;;5.40;2.47;;;29.40;52.10;;;;;;5054056;28;20514;-62
2022/06/29 12:21:54;;;;;;;99.03;12.35;;;29.60;52.00;;;;;;5044870;28;20093;-62
2022/06/29 12:24:20;;;;;;;9.98;3.30;;;29.70;51.60;;;;;;5045135;28;20026;-62
2022/06/29 12:26:46;;;;;;;6.32;2.85;;;30.00;51.50;;;;;;5050490;28;20029;-62
2022/06/29 12:29:13;;;;;;;3.72;2.58;;;30.30;51.30;;;;;;5043351;28;20034;-62
2022/06/29 12:31:41;;;;;;;3.88;2.00;;;30.50;50.60;;;;;;5034552;28;20045;-62
2022/06/29 12:34:07;;;;;;;4.78;2.38;;;30.60;49.70;;;;;;5053225;28;20419;-62
2022/06/29 12:36:33;;;;;;;6.88;2.05;;;30.80;48.60;;;;;;5051613;28;20061;-61
2022/06/29 12:38:59;;;;;;;5.85;2.35;;;30.90;48.60;;;;;;5044315;28;20120;-62
2022/06/29 12:41:25;;;;;;;4.30;2.30;;;30.90;48.60;;;;;;5052246;28;20484;-62
2022/06/29 12:43:51;;;;;;;2.88;1.80;;;30.90;48.80;;;;;;5047999;28;20030;-62
2022/06/29 12:46:16;;;;;;;3.83;2.33;;;30.90;49.20;;;;;;5042576;28;20091;-61
2022/06/29 12:48:42;;;;;;;5.63;2.05;;;30.90;48.50;;;;;;5049152;28;20029;-60
2022/06/29 12:51:09;;;;;;;3.38;2.13;;;30.90;47.90;;;;;;5045637;28;20021;-62
2022/06/29 12:53:35;;;;;;;3.75;2.25;;;30.90;47.80;;;;;;5052819;28;20045;-60
2022/06/29 12:56:00;;;;;;;4.32;1.80;;;30.90;47.90;;;;;;5046736;28;20030;-60
2022/06/29 12:58:26;;;;;;;5.55;1.88;;;30.80;48.10;;;;;;5053441;28;20055;-61
2022/06/29 13:00:52;;;;;;;4.40;2.35;;;30.80;48.30;;;;;;5045179;28;20033;-62
2022/06/29 13:03:18;;;;;;;2.58;1.95;;;30.80;48.00;;;;;;5040699;28;20024;-61
2022/06/29 13:05:43;;;;;;;5.30;2.00;;;30.70;47.50;;;;;;5046085;28;20033;-60
2022/06/29 13:08:10;;;;;;;3.55;1.83;;;30.70;47.90;;;;;;5045425;28;20124;-61
2022/06/29 13:10:36;;;;;;;5.10;2.17;;;30.60;48.00;;;;;;5041360;28;20384;-61
2022/06/29 13:13:03;;;;;;;4.60;2.40;;;30.60;48.20;;;;;;5044986;28;20044;-61
2022/06/29 13:15:29;;;;;;;4.43;2.30;;;30.50;47.80;;;;;;5038136;28;20029;-61
2022/06/29 13:17:55;;;;;;;3.13;1.90;;;30.60;48.50;;;;;;5055997;28;20064;-62
2022/06/29 13:20:21;;;;;;;3.88;2.20;;;30.60;49.10;;;;;;5037237;28;20037;-60
2022/06/29 13:22:46;;;;;;;4.72;2.30;;;30.70;48.30;;;;;;5049180;28;20492;-61
2022/06/29 13:25:12;;;;;;;3.45;2.10;;;30.80;48.10;;;;;;5046967;28;20068;-61
2022/06/29 13:27:38;;;;;;;6.57;2.05;;;30.80;47.60;;;;;;5044206;28;20130;-61